sensor_id;sensor_type;location;lat;lon;timestamp;pressure;altitude;pressure_sealevel;temperature;humidity
38912;BME280;28444;48.056;14.408;2023-08-06T00:00:30;96782.94;;;15.02;100.00
38912;BME280;28444;48.056;14.408;2023-08-06T00:02:56;96774.31;;;15.08;100.00
38912;BME280;28444;48.056;14.408;2023-08-06T00:05:23;96782.06;;;15.11;100.00
38912;BME280;28444;48.056;14.408;2023-08-06T00:07:50;96777.06;;;15.08;100.00
38912;BME280;28444;48.056;14.408;2023-08-06T00:10:17;96774.91;;;15.06;100.00
38912;BME280;28444;48.056;14.408;2023-08-06T00:12:44;96769.38;;;15.06;100.00
38912;BME280;28444;48.056;14.408;2023-08-06T00:15:11;96766.63;;;15.06;100.00
38912;BME280;28444;48.056;14.408;2023-08-06T00:17:38;96762.66;;;15.09;100.00
38912;BME280;28444;48.056;14.408;2023-08-06T00:20:05;96758.88;;;15.16;100.00
38912;BME280;28444;48.056;14.408;2023-08-06T00:22:33;96759.09;;;15.21;100.00
38912;BME280;28444;48.056;14.408;2023-08-06T00:25:01;96772.06;;;15.18;100.00
38912;BME280;28444;48.056;14.408;2023-08-06T00:27:28;96761.25;;;15.08;100.00
38912;BME280;28444;48.056;14.408;2023-08-06T00:29:54;96765.22;;;15.05;100.00
38912;BME280;28444;48.056;14.408;2023-08-06T00:32:21;96757.56;;;15.17;100.00
38912;BME280;28444;48.056;14.408;2023-08-06T00:34:48;96756.75;;;15.15;100.00
38912;BME280;28444;48.056;14.408;2023-08-06T00:37:18;96757.47;;;15.15;100.00
38912;BME280;28444;48.056;14.408;2023-08-06T00:39:44;96757.78;;;15.08;100.00
38912;BME280;28444;48.056;14.408;2023-08-06T00:42:12;96757.28;;;15.11;100.00
38912;BME280;28444;48.056;14.408;2023-08-06T00:44:39;96753.28;;;15.14;100.00
38912;BME280;28444;48.056;14.408;2023-08-06T00:47:07;96749.91;;;15.16;100.00
38912;BME280;28444;48.056;14.408;2023-08-06T00:49:38;96739.53;;;15.14;100.00
38912;BME280;28444;48.056;14.408;2023-08-06T00:52:06;96744.31;;;15.14;100.00
38912;BME280;28444;48.056;14.408;2023-08-06T00:54:34;96742.16;;;15.12;100.00
38912;BME280;28444;48.056;14.408;2023-08-06T00:57:02;96736.47;;;15.08;100.00
38912;BME280;28444;48.056;14.408;2023-08-06T00:59:30;96724.75;;;15.08;100.00
38912;BME280;28444;48.056;14.408;2023-08-06T01:01:57;96722.06;;;15.10;100.00
38912;BME280;28444;48.056;14.408;2023-08-06T01:04:24;96715.16;;;15.09;100.00
38912;BME280;28444;48.056;14.408;2023-08-06T01:07:06;96713.53;;;15.04;100.00
38912;BME280;28444;48.056;14.408;2023-08-06T01:09:52;96719.94;;;15.08;100.00
38912;BME280;28444;48.056;14.408;2023-08-06T01:15:16;96715.88;;;15.09;100.00
38912;BME280;28444;48.056;14.408;2023-08-06T01:17:45;96714.63;;;15.12;100.00
38912;BME280;28444;48.056;14.408;2023-08-06T01:20:12;96718.63;;;15.09;100.00
38912;BME280;28444;48.056;14.408;2023-08-06T01:22:38;96722.78;;;15.10;100.00
38912;BME280;28444;48.056;14.408;2023-08-06T01:25:05;96717.91;;;15.09;100.00
38912;BME280;28444;48.056;14.408;2023-08-06T01:27:45;96712.00;;;15.14;100.00
38912;BME280;28444;48.056;14.408;2023-08-06T01:30:16;96711.25;;;15.14;100.00
38912;BME280;28444;48.056;14.408;2023-08-06T01:32:46;96717.28;;;15.10;100.00
38912;BME280;28444;48.056;14.408;2023-08-06T01:35:16;96711.25;;;15.14;100.00
38912;BME280;28444;48.056;14.408;2023-08-06T01:37:44;96714.53;;;15.10;100.00
38912;BME280;28444;48.056;14.408;2023-08-06T01:40:11;96704.84;;;15.09;100.00
38912;BME280;28444;48.056;14.408;2023-08-06T01:42:39;96709.84;;;15.13;100.00
38912;BME280;28444;48.056;14.408;2023-08-06T01:45:07;96703.63;;;15.12;100.00
38912;BME280;28444;48.056;14.408;2023-08-06T01:47:34;96700.56;;;15.06;100.00
38912;BME280;28444;48.056;14.408;2023-08-06T01:50:01;96698.00;;;15.10;100.00
38912;BME280;28444;48.056;14.408;2023-08-06T01:52:28;96700.38;;;15.02;100.00
38912;BME280;28444;48.056;14.408;2023-08-06T01:54:55;96699.97;;;14.94;100.00
38912;BME280;28444;48.056;14.408;2023-08-06T01:57:22;96702.84;;;14.96;100.00
38912;BME280;28444;48.056;14.408;2023-08-06T01:59:49;96696.41;;;14.91;100.00
38912;BME280;28444;48.056;14.408;2023-08-06T02:02:16;96694.28;;;14.90;100.00
38912;BME280;28444;48.056;14.408;2023-08-06T02:04:42;96693.88;;;14.82;100.00
38912;BME280;28444;48.056;14.408;2023-08-06T02:07:09;96704.78;;;14.80;100.00
38912;BME280;28444;48.056;14.408;2023-08-06T02:09:36;96689.38;;;14.75;100.00
38912;BME280;28444;48.056;14.408;2023-08-06T02:12:02;96692.16;;;14.75;100.00
38912;BME280;28444;48.056;14.408;2023-08-06T02:14:29;96684.78;;;14.79;100.00
38912;BME280;28444;48.056;14.408;2023-08-06T02:16:56;96693.97;;;14.70;100.00
38912;BME280;28444;48.056;14.408;2023-08-06T02:19:22;96691.13;;;14.68;100.00
38912;BME280;28444;48.056;14.408;2023-08-06T02:21:49;96687.75;;;14.69;100.00
38912;BME280;28444;48.056;14.408;2023-08-06T02:24:16;96692.66;;;14.71;100.00
38912;BME280;28444;48.056;14.408;2023-08-06T02:26:42;96686.94;;;14.67;100.00
38912;BME280;28444;48.056;14.408;2023-08-06T02:29:09;96696.50;;;14.66;100.00
38912;BME280;28444;48.056;14.408;2023-08-06T02:31:35;96685.41;;;14.64;100.00
38912;BME280;28444;48.056;14.408;2023-08-06T02:34:02;96686.00;;;14.62;100.00
38912;BME280;28444;48.056;14.408;2023-08-06T02:36:29;96680.50;;;14.76;100.00
38912;BME280;28444;48.056;14.408;2023-08-06T02:38:56;96682.94;;;14.70;100.00
38912;BME280;28444;48.056;14.408;2023-08-06T02:41:22;96690.69;;;14.74;100.00
38912;BME280;28444;48.056;14.408;2023-08-06T02:43:49;96687.94;;;14.74;100.00
38912;BME280;28444;48.056;14.408;2023-08-06T02:46:15;96684.16;;;14.81;100.00
38912;BME280;28444;48.056;14.408;2023-08-06T02:48:42;96674.91;;;14.88;100.00
38912;BME280;28444;48.056;14.408;2023-08-06T02:51:08;96672.88;;;14.75;100.00
38912;BME280;28444;48.056;14.408;2023-08-06T02:53:35;96676.03;;;14.69;100.00
38912;BME280;28444;48.056;14.408;2023-08-06T02:56:02;96675.81;;;14.65;100.00
38912;BME280;28444;48.056;14.408;2023-08-06T02:58:29;96678.38;;;14.61;100.00
38912;BME280;28444;48.056;14.408;2023-08-06T03:01:03;96670.84;;;14.61;100.00
38912;BME280;28444;48.056;14.408;2023-08-06T03:03:33;96673.59;;;14.61;100.00
38912;BME280;28444;48.056;14.408;2023-08-06T03:06:00;96668.59;;;14.72;100.00
38912;BME280;28444;48.056;14.408;2023-08-06T03:08:28;96667.88;;;14.71;100.00
38912;BME280;28444;48.056;14.408;2023-08-06T03:10:55;96662.28;;;14.69;100.00
38912;BME280;28444;48.056;14.408;2023-08-06T03:13:21;96664.94;;;14.67;100.00
38912;BME280;28444;48.056;14.408;2023-08-06T03:15:58;96667.19;;;14.71;100.00
38912;BME280;28444;48.056;14.408;2023-08-06T03:18:26;96669.81;;;14.68;100.00
38912;BME280;28444;48.056;14.408;2023-08-06T03:20:55;96667.19;;;14.71;100.00
38912;BME280;28444;48.056;14.408;2023-08-06T03:23:23;96657.47;;;14.69;100.00
38912;BME280;28444;48.056;14.408;2023-08-06T03:25:49;96664.72;;;14.77;100.00
38912;BME280;28444;48.056;14.408;2023-08-06T03:28:16;96663.50;;;14.80;100.00
38912;BME280;28444;48.056;14.408;2023-08-06T03:30:43;96667.78;;;14.83;100.00
38912;BME280;28444;48.056;14.408;2023-08-06T03:33:10;96664.00;;;14.90;100.00
38912;BME280;28444;48.056;14.408;2023-08-06T03:35:36;96667.56;;;14.79;100.00
38912;BME280;28444;48.056;14.408;2023-08-06T03:38:03;96660.53;;;14.76;100.00
38912;BME280;28444;48.056;14.408;2023-08-06T03:40:29;96662.06;;;14.79;100.00
38912;BME280;28444;48.056;14.408;2023-08-06T03:42:56;96655.25;;;14.80;100.00
38912;BME280;28444;48.056;14.408;2023-08-06T03:45:23;96659.22;;;14.77;100.00
38912;BME280;28444;48.056;14.408;2023-08-06T03:47:49;96657.28;;;14.79;100.00
38912;BME280;28444;48.056;14.408;2023-08-06T03:50:16;96652.09;;;14.72;100.00
38912;BME280;28444;48.056;14.408;2023-08-06T03:52:42;96654.44;;;14.63;100.00
38912;BME280;28444;48.056;14.408;2023-08-06T03:55:09;96654.13;;;14.57;100.00
38912;BME280;28444;48.056;14.408;2023-08-06T03:57:35;96669.50;;;14.62;100.00
38912;BME280;28444;48.056;14.408;2023-08-06T04:00:03;96671.47;;;14.60;100.00
38912;BME280;28444;48.056;14.408;2023-08-06T04:02:30;96669.94;;;14.57;100.00
38912;BME280;28444;48.056;14.408;2023-08-06T04:04:57;96673.97;;;14.42;100.00
38912;BME280;28444;48.056;14.408;2023-08-06T04:07:25;96683.00;;;14.44;100.00
38912;BME280;28444;48.056;14.408;2023-08-06T04:09:57;96674.88;;;14.47;100.00
38912;BME280;28444;48.056;14.408;2023-08-06T04:12:24;96675.09;;;14.51;100.00
38912;BME280;28444;48.056;14.408;2023-08-06T04:14:51;96680.09;;;14.54;100.00
38912;BME280;28444;48.056;14.408;2023-08-06T04:17:19;96674.88;;;14.47;100.00
38912;BME280;28444;48.056;14.408;2023-08-06T04:19:53;96676.44;;;14.50;100.00
38912;BME280;28444;48.056;14.408;2023-08-06T04:22:21;96673.34;;;14.43;100.00
38912;BME280;28444;48.056;14.408;2023-08-06T04:24:48;96670.28;;;14.37;100.00
38912;BME280;28444;48.056;14.408;2023-08-06T04:27:15;96670.28;;;14.37;100.00
38912;BME280;28444;48.056;14.408;2023-08-06T04:29:42;96673.75;;;14.38;100.00
38912;BME280;28444;48.056;14.408;2023-08-06T04:32:10;96683.00;;;14.31;100.00
38912;BME280;28444;48.056;14.408;2023-08-06T04:34:37;96683.53;;;14.27;100.00
38912;BME280;28444;48.056;14.408;2023-08-06T04:37:04;96677.28;;;14.27;100.00
38912;BME280;28444;48.056;14.408;2023-08-06T04:39:31;96671.69;;;14.25;100.00
38912;BME280;28444;48.056;14.408;2023-08-06T04:41:58;96675.44;;;14.17;100.00
38912;BME280;28444;48.056;14.408;2023-08-06T04:44:25;96670.44;;;14.14;100.00
38912;BME280;28444;48.056;14.408;2023-08-06T04:46:52;96680.75;;;14.13;100.00
38912;BME280;28444;48.056;14.408;2023-08-06T04:49:20;96677.56;;;14.19;100.00
38912;BME280;28444;48.056;14.408;2023-08-06T04:51:47;96672.78;;;14.19;100.00
38912;BME280;28444;48.056;14.408;2023-08-06T04:54:14;96677.28;;;14.13;100.00
38912;BME280;28444;48.056;14.408;2023-08-06T04:56:40;96676.44;;;14.10;100.00
38912;BME280;28444;48.056;14.408;2023-08-06T04:59:07;96680.03;;;14.13;100.00
38912;BME280;28444;48.056;14.408;2023-08-06T05:01:34;96684.19;;;14.14;100.00
38912;BME280;28444;48.056;14.408;2023-08-06T05:04:00;96690.06;;;14.08;100.00
38912;BME280;28444;48.056;14.408;2023-08-06T05:06:27;96687.03;;;14.02;100.00
38912;BME280;28444;48.056;14.408;2023-08-06T05:08:54;96690.06;;;14.08;100.00
38912;BME280;28444;48.056;14.408;2023-08-06T05:11:20;96691.81;;;14.15;100.00
38912;BME280;28444;48.056;14.408;2023-08-06T05:13:47;96694.47;;;14.13;100.00
38912;BME280;28444;48.056;14.408;2023-08-06T05:16:14;96688.56;;;14.05;100.00
38912;BME280;28444;48.056;14.408;2023-08-06T05:18:41;96683.56;;;14.15;100.00
38912;BME280;28444;48.056;14.408;2023-08-06T05:21:08;96685.13;;;14.18;100.00
38912;BME280;28444;48.056;14.408;2023-08-06T05:23:34;96687.16;;;14.18;100.00
38912;BME280;28444;48.056;14.408;2023-08-06T05:26:01;96690.91;;;14.11;100.00
38912;BME280;28444;48.056;14.408;2023-08-06T05:28:28;96688.16;;;14.11;100.00
38912;BME280;28444;48.056;14.408;2023-08-06T05:30:54;96688.38;;;14.15;100.00
38912;BME280;28444;48.056;14.408;2023-08-06T05:33:21;96691.22;;;14.17;100.00
38912;BME280;28444;48.056;14.408;2023-08-06T05:35:49;96690.53;;;14.16;100.00
38912;BME280;28444;48.056;14.408;2023-08-06T05:38:16;96683.78;;;14.19;100.00
38912;BME280;28444;48.056;14.408;2023-08-06T05:40:43;96689.41;;;14.21;100.00
38912;BME280;28444;48.056;14.408;2023-08-06T05:43:11;96686.53;;;14.19;100.00
38912;BME280;28444;48.056;14.408;2023-08-06T05:45:38;96689.72;;;14.28;100.00
38912;BME280;28444;48.056;14.408;2023-08-06T05:48:04;96684.44;;;14.32;100.00
38912;BME280;28444;48.056;14.408;2023-08-06T05:50:31;96685.66;;;14.29;100.00
38912;BME280;28444;48.056;14.408;2023-08-06T05:52:58;96683.09;;;14.33;100.00
38912;BME280;28444;48.056;14.408;2023-08-06T05:55:27;96688.81;;;14.37;100.00
38912;BME280;28444;48.056;14.408;2023-08-06T05:57:54;96684.03;;;14.37;100.00
38912;BME280;28444;48.056;14.408;2023-08-06T06:00:21;96682.00;;;14.38;100.00
38912;BME280;28444;48.056;14.408;2023-08-06T06:02:48;96689.22;;;14.45;100.00
38912;BME280;28444;48.056;14.408;2023-08-06T06:05:15;96687.28;;;14.48;100.00
38912;BME280;28444;48.056;14.408;2023-08-06T06:07:41;96682.75;;;14.52;100.00
38912;BME280;28444;48.056;14.408;2023-08-06T06:10:08;96687.66;;;14.54;100.00
38912;BME280;28444;48.056;14.408;2023-08-06T06:12:35;96685.72;;;14.56;100.00
38912;BME280;28444;48.056;14.408;2023-08-06T06:15:02;96678.97;;;14.59;100.00
38912;BME280;28444;48.056;14.408;2023-08-06T06:17:29;96687.75;;;14.69;100.00
38912;BME280;28444;48.056;14.408;2023-08-06T06:19:56;96683.16;;;14.74;100.00
38912;BME280;28444;48.056;14.408;2023-08-06T06:22:23;96676.44;;;14.63;100.00
38912;BME280;28444;48.056;14.408;2023-08-06T06:24:49;96680.22;;;14.56;100.00
38912;BME280;28444;48.056;14.408;2023-08-06T06:27:16;96684.59;;;14.61;100.00
38912;BME280;28444;48.056;14.408;2023-08-06T06:29:42;96678.78;;;14.55;100.00
38912;BME280;28444;48.056;14.408;2023-08-06T06:32:09;96669.50;;;14.62;100.00
38912;BME280;28444;48.056;14.408;2023-08-06T06:34:36;96665.53;;;14.65;100.00
38912;BME280;28444;48.056;14.408;2023-08-06T06:37:05;96657.59;;;14.72;100.00
38912;BME280;28444;48.056;14.408;2023-08-06T06:39:32;96655.94;;;14.80;100.00
38912;BME280;28444;48.056;14.408;2023-08-06T06:41:58;96672.06;;;14.86;100.00
38912;BME280;28444;48.056;14.408;2023-08-06T06:44:25;96667.66;;;14.81;100.00
38912;BME280;28444;48.056;14.408;2023-08-06T06:46:51;96678.78;;;14.83;100.00
38912;BME280;28444;48.056;14.408;2023-08-06T06:49:18;96678.88;;;14.85;100.00
38912;BME280;28444;48.056;14.408;2023-08-06T06:51:45;96681.22;;;14.90;100.00
38912;BME280;28444;48.056;14.408;2023-08-06T06:54:11;96685.81;;;15.00;100.00
38912;BME280;28444;48.056;14.408;2023-08-06T06:56:38;96674.47;;;15.07;100.00
38912;BME280;28444;48.056;14.408;2023-08-06T06:59:05;96675.78;;;15.06;100.00
38912;BME280;28444;48.056;14.408;2023-08-06T07:01:31;96681.72;;;15.14;100.00
38912;BME280;28444;48.056;14.408;2023-08-06T07:03:58;96681.59;;;15.26;100.00
38912;BME280;28444;48.056;14.408;2023-08-06T07:06:25;96670.63;;;15.42;100.00
38912;BME280;28444;48.056;14.408;2023-08-06T07:08:52;96678.28;;;15.44;100.00
38912;BME280;28444;48.056;14.408;2023-08-06T07:11:19;96681.81;;;15.46;100.00
38912;BME280;28444;48.056;14.408;2023-08-06T07:13:45;96685.94;;;15.61;100.00
38912;BME280;28444;48.056;14.408;2023-08-06T07:16:12;96690.50;;;15.54;100.00
38912;BME280;28444;48.056;14.408;2023-08-06T07:18:39;96702.75;;;15.51;100.00
38912;BME280;28444;48.056;14.408;2023-08-06T07:21:05;96691.97;;;15.57;100.00
38912;BME280;28444;48.056;14.408;2023-08-06T07:23:33;96693.84;;;15.67;100.00
38912;BME280;28444;48.056;14.408;2023-08-06T07:26:00;96699.22;;;15.64;100.00
38912;BME280;28444;48.056;14.408;2023-08-06T07:28:26;96695.34;;;15.70;100.00
38912;BME280;28444;48.056;14.408;2023-08-06T07:30:53;96696.59;;;15.67;100.00
38912;BME280;28444;48.056;14.408;2023-08-06T07:33:20;96690.50;;;15.84;100.00
38912;BME280;28444;48.056;14.408;2023-08-06T07:35:46;96695.50;;;15.87;100.00
38912;BME280;28444;48.056;14.408;2023-08-06T07:38:13;96684.88;;;15.52;100.00
38912;BME280;28444;48.056;14.408;2023-08-06T07:40:39;96686.22;;;15.51;100.00
38912;BME280;28444;48.056;14.408;2023-08-06T07:43:06;96692.19;;;15.61;100.00
38912;BME280;28444;48.056;14.408;2023-08-06T07:45:36;96693.31;;;15.56;100.00
38912;BME280;28444;48.056;14.408;2023-08-06T07:48:03;96697.78;;;15.63;100.00
38912;BME280;28444;48.056;14.408;2023-08-06T07:50:30;96716.91;;;15.46;100.00
38912;BME280;28444;48.056;14.408;2023-08-06T07:52:57;96696.50;;;15.07;100.00
38912;BME280;28444;48.056;14.408;2023-08-06T07:55:25;96708.44;;;14.84;100.00
38912;BME280;28444;48.056;14.408;2023-08-06T07:57:52;96698.03;;;14.69;100.00
38912;BME280;28444;48.056;14.408;2023-08-06T08:00:18;96704.88;;;14.68;100.00
38912;BME280;28444;48.056;14.408;2023-08-06T08:02:45;96695.97;;;14.56;100.00
38912;BME280;28444;48.056;14.408;2023-08-06T08:05:13;96700.78;;;14.55;100.00
38912;BME280;28444;48.056;14.408;2023-08-06T08:07:39;96704.34;;;14.58;100.00
38912;BME280;28444;48.056;14.408;2023-08-06T08:10:06;96699.88;;;14.64;100.00
38912;BME280;28444;48.056;14.408;2023-08-06T08:12:33;96703.03;;;14.59;100.00
38912;BME280;28444;48.056;14.408;2023-08-06T08:15:00;96697.72;;;14.63;100.00
38912;BME280;28444;48.056;14.408;2023-08-06T08:17:26;96698.72;;;14.56;100.00
38912;BME280;28444;48.056;14.408;2023-08-06T08:19:53;96697.00;;;14.62;100.00
38912;BME280;28444;48.056;14.408;2023-08-06T08:22:20;96705.47;;;14.66;100.00
38912;BME280;28444;48.056;14.408;2023-08-06T08:24:46;96696.50;;;14.52;100.00
38912;BME280;28444;48.056;14.408;2023-08-06T08:27:13;96705.22;;;14.35;100.00
38912;BME280;28444;48.056;14.408;2023-08-06T08:29:40;96684.06;;;14.12;100.00
38912;BME280;28444;48.056;14.408;2023-08-06T08:32:07;96688.56;;;14.05;100.00
38912;BME280;28444;48.056;14.408;2023-08-06T08:34:33;96719.28;;;14.02;100.00
38912;BME280;28444;48.056;14.408;2023-08-06T08:37:00;96706.91;;;13.89;100.00
38912;BME280;28444;48.056;14.408;2023-08-06T08:39:26;96694.34;;;13.72;100.00
38912;BME280;28444;48.056;14.408;2023-08-06T08:41:56;96691.75;;;13.62;100.00
38912;BME280;28444;48.056;14.408;2023-08-06T08:44:23;96675.50;;;13.41;100.00
38912;BME280;28444;48.056;14.408;2023-08-06T08:46:54;96681.56;;;13.39;100.00
38912;BME280;28444;48.056;14.408;2023-08-06T08:49:26;96679.28;;;13.47;100.00
38912;BME280;28444;48.056;14.408;2023-08-06T08:51:54;96678.56;;;13.47;100.00
38912;BME280;28444;48.056;14.408;2023-08-06T08:54:23;96673.63;;;13.57;100.00
38912;BME280;28444;48.056;14.408;2023-08-06T08:56:50;96667.31;;;13.80;100.00
38912;BME280;28444;48.056;14.408;2023-08-06T08:59:17;96661.25;;;13.95;100.00
38912;BME280;28444;48.056;14.408;2023-08-06T09:01:45;96658.94;;;14.17;100.00
38912;BME280;28444;48.056;14.408;2023-08-06T09:04:17;96657.56;;;14.44;100.00
38912;BME280;28444;48.056;14.408;2023-08-06T09:06:50;96655.88;;;14.64;100.00
38912;BME280;28444;48.056;14.408;2023-08-06T09:09:20;96643.91;;;14.87;100.00
38912;BME280;28444;48.056;14.408;2023-08-06T09:11:49;96639.69;;;15.14;100.00
38912;BME280;28444;48.056;14.408;2023-08-06T09:14:17;96641.13;;;15.45;100.00
38912;BME280;28444;48.056;14.408;2023-08-06T09:16:44;96642.13;;;15.81;100.00
38912;BME280;28444;48.056;14.408;2023-08-06T09:19:11;96626.59;;;16.03;100.00
38912;BME280;28444;48.056;14.408;2023-08-06T09:21:45;96631.38;;;16.19;100.00
38912;BME280;28444;48.056;14.408;2023-08-06T09:24:15;96632.16;;;16.37;100.00
38912;BME280;28444;48.056;14.408;2023-08-06T09:26:44;96636.97;;;16.52;100.00
38912;BME280;28444;48.056;14.408;2023-08-06T09:29:11;96632.41;;;16.59;97.88
38912;BME280;28444;48.056;14.408;2023-08-06T09:31:41;96624.16;;;16.43;99.07
38912;BME280;28444;48.056;14.408;2023-08-06T09:36:46;96624.06;;;16.57;96.31
38912;BME280;28444;48.056;14.408;2023-08-06T09:39:15;96619.50;;;16.64;96.72
38912;BME280;28444;48.056;14.408;2023-08-06T09:41:43;96622.78;;;16.76;96.14
38912;BME280;28444;48.056;14.408;2023-08-06T09:44:20;96614.13;;;16.83;93.69
38912;BME280;28444;48.056;14.408;2023-08-06T09:46:49;96621.97;;;16.73;94.06
38912;BME280;28444;48.056;14.408;2023-08-06T09:49:21;96608.09;;;16.71;93.09
38912;BME280;28444;48.056;14.408;2023-08-06T09:51:51;96615.84;;;16.59;94.16
38912;BME280;28444;48.056;14.408;2023-08-06T09:54:19;96618.13;;;16.31;91.79
38912;BME280;28444;48.056;14.408;2023-08-06T09:56:54;96616.31;;;16.37;93.24
38912;BME280;28444;48.056;14.408;2023-08-06T09:59:23;96612.16;;;16.52;93.69
38912;BME280;28444;48.056;14.408;2023-08-06T10:01:51;96603.47;;;16.76;90.74
38912;BME280;28444;48.056;14.408;2023-08-06T10:04:19;96605.59;;;17.11;92.80
38912;BME280;28444;48.056;14.408;2023-08-06T10:06:52;96604.47;;;17.18;88.42
38912;BME280;28444;48.056;14.408;2023-08-06T10:09:19;96599.38;;;17.28;89.42
38912;BME280;28444;48.056;14.408;2023-08-06T10:11:50;96608.97;;;17.45;88.93
38912;BME280;28444;48.056;14.408;2023-08-06T10:16:47;96608.41;;;17.49;86.65
38912;BME280;28444;48.056;14.408;2023-08-06T10:19:16;96608.00;;;17.56;86.54
38912;BME280;28444;48.056;14.408;2023-08-06T10:24:51;96620.09;;;17.65;84.47
38912;BME280;28444;48.056;14.408;2023-08-06T10:27:22;96619.22;;;17.61;83.55
38912;BME280;28444;48.056;14.408;2023-08-06T10:29:48;96622.63;;;17.77;84.65
38912;BME280;28444;48.056;14.408;2023-08-06T10:32:18;96617.63;;;17.73;83.75
38912;BME280;28444;48.056;14.408;2023-08-06T10:34:58;96617.50;;;17.87;82.98
38912;BME280;28444;48.056;14.408;2023-08-06T10:37:35;96605.16;;;17.90;81.47
38912;BME280;28444;48.056;14.408;2023-08-06T10:40:03;96610.97;;;17.98;80.45
38912;BME280;28444;48.056;14.408;2023-08-06T10:42:32;96602.88;;;18.04;82.84
38912;BME280;28444;48.056;14.408;2023-08-06T10:45:15;96605.97;;;18.13;82.74
38912;BME280;28444;48.056;14.408;2023-08-06T10:47:43;96601.63;;;18.27;79.27
38912;BME280;28444;48.056;14.408;2023-08-06T10:50:12;96600.06;;;18.42;77.84
38912;BME280;28444;48.056;14.408;2023-08-06T10:52:40;96590.94;;;18.38;81.63
38912;BME280;28444;48.056;14.408;2023-08-06T10:55:07;96589.72;;;18.43;78.41
38912;BME280;28444;48.056;14.408;2023-08-06T10:57:34;96586.28;;;18.44;77.81
38912;BME280;28444;48.056;14.408;2023-08-06T11:00:03;96592.56;;;18.25;78.05
38912;BME280;28444;48.056;14.408;2023-08-06T11:02:41;96592.13;;;18.33;76.37
38912;BME280;28444;48.056;14.408;2023-08-06T11:05:09;96565.03;;;18.29;75.28
38912;BME280;28444;48.056;14.408;2023-08-06T11:07:36;96575.72;;;18.19;76.61
38912;BME280;28444;48.056;14.408;2023-08-06T11:10:04;96579.94;;;18.20;76.02
38912;BME280;28444;48.056;14.408;2023-08-06T11:12:32;96591.06;;;18.22;77.16
38912;BME280;28444;48.056;14.408;2023-08-06T11:14:59;96585.41;;;18.38;77.93
38912;BME280;28444;48.056;14.408;2023-08-06T11:17:28;96584.56;;;18.55;78.41
38912;BME280;28444;48.056;14.408;2023-08-06T11:19:55;96572.63;;;18.90;78.30
38912;BME280;28444;48.056;14.408;2023-08-06T11:22:22;96563.34;;;19.04;76.40
38912;BME280;28444;48.056;14.408;2023-08-06T11:24:49;96569.38;;;19.20;76.76
38912;BME280;28444;48.056;14.408;2023-08-06T11:27:17;96553.63;;;19.48;72.87
38912;BME280;28444;48.056;14.408;2023-08-06T11:29:44;96560.63;;;19.28;70.89
38912;BME280;28444;48.056;14.408;2023-08-06T11:32:11;96556.66;;;19.11;71.79
38912;BME280;28444;48.056;14.408;2023-08-06T11:34:43;96554.91;;;18.99;71.43
38912;BME280;28444;48.056;14.408;2023-08-06T11:37:09;96559.94;;;19.05;70.94
38912;BME280;28444;48.056;14.408;2023-08-06T11:39:38;96560.91;;;18.92;69.96
38912;BME280;28444;48.056;14.408;2023-08-06T11:42:08;96554.19;;;18.77;69.74
38912;BME280;28444;48.056;14.408;2023-08-06T11:44:35;96567.06;;;18.90;70.71
38912;BME280;28444;48.056;14.408;2023-08-06T11:47:04;96564.19;;;18.86;70.41
38912;BME280;28444;48.056;14.408;2023-08-06T11:49:38;96568.13;;;18.59;68.59
38912;BME280;28444;48.056;14.408;2023-08-06T11:52:10;96559.03;;;18.57;69.14
38912;BME280;28444;48.056;14.408;2023-08-06T11:54:37;96570.94;;;18.61;70.16
38912;BME280;28444;48.056;14.408;2023-08-06T11:57:06;96564.88;;;18.45;72.82
38912;BME280;28444;48.056;14.408;2023-08-06T11:59:33;96563.75;;;18.52;72.97
38912;BME280;28444;48.056;14.408;2023-08-06T12:02:04;96579.03;;;18.55;72.67
38912;BME280;28444;48.056;14.408;2023-08-06T12:05:01;96584.09;;;18.61;73.15
38912;BME280;28444;48.056;14.408;2023-08-06T12:07:29;96582.53;;;18.75;74.06
38912;BME280;28444;48.056;14.408;2023-08-06T12:09:57;96581.94;;;18.79;73.20
38912;BME280;28444;48.056;14.408;2023-08-06T12:12:24;96565.66;;;19.11;70.43
38912;BME280;28444;48.056;14.408;2023-08-06T12:14:51;96580.41;;;19.18;71.58
38912;BME280;28444;48.056;14.408;2023-08-06T12:17:17;96573.38;;;19.37;69.43
38912;BME280;28444;48.056;14.408;2023-08-06T12:19:45;96566.59;;;19.42;69.73
38912;BME280;28444;48.056;14.408;2023-08-06T12:22:14;96563.78;;;19.40;69.84
38912;BME280;28444;48.056;14.408;2023-08-06T12:24:45;96584.50;;;19.39;71.18
38912;BME280;28444;48.056;14.408;2023-08-06T12:27:12;96564.22;;;19.32;71.49
38912;BME280;28444;48.056;14.408;2023-08-06T12:29:43;96558.63;;;19.30;68.86
38912;BME280;28444;48.056;14.408;2023-08-06T12:32:11;96572.28;;;19.24;67.87
38912;BME280;28444;48.056;14.408;2023-08-06T12:34:39;96579.75;;;19.19;67.09
38912;BME280;28444;48.056;14.408;2023-08-06T12:37:18;96592.66;;;19.11;67.17
38912;BME280;28444;48.056;14.408;2023-08-06T12:39:45;96593.69;;;18.99;68.18
38912;BME280;28444;48.056;14.408;2023-08-06T12:42:11;96599.91;;;18.78;69.59
38912;BME280;28444;48.056;14.408;2023-08-06T12:44:38;96623.91;;;18.71;70.32
38912;BME280;28444;48.056;14.408;2023-08-06T12:47:06;96622.63;;;18.55;71.67
38912;BME280;28444;48.056;14.408;2023-08-06T12:49:33;96611.34;;;18.28;72.49
38912;BME280;28444;48.056;14.408;2023-08-06T12:51:59;96616.88;;;18.28;73.03
38912;BME280;28444;48.056;14.408;2023-08-06T12:54:27;96609.50;;;18.35;71.75
38912;BME280;28444;48.056;14.408;2023-08-06T12:56:54;96621.50;;;18.42;71.51